createdAt,value
2022-09-07T00:01:18.882Z,31.73
2022-09-07T00:03:46.967Z,31.75
2022-09-07T00:06:15.756Z,34.42
2022-09-07T00:08:45.238Z,33.42
2022-09-07T00:11:16.450Z,34.28
2022-09-07T00:13:47.344Z,33.88
2022-09-07T00:16:19.849Z,33.80
2022-09-07T00:18:48.815Z,33.78
2022-09-07T00:21:18.999Z,32.78
2022-09-07T00:23:50.351Z,32.67
2022-09-07T00:26:21.407Z,32.85
2022-09-07T00:28:50.396Z,35.42
2022-09-07T00:31:22.166Z,31.05
2022-09-07T00:33:52.507Z,34.83
2022-09-07T00:36:23.394Z,33.35
2022-09-07T00:38:53.479Z,33.47
2022-09-07T00:41:23.463Z,32.08
2022-09-07T00:43:55.013Z,32.83
2022-09-07T00:46:26.233Z,32.97
2022-09-07T00:49:02.094Z,33.65
2022-09-07T00:51:38.347Z,32.08
2022-09-07T00:54:13.822Z,33.17
2022-09-07T00:56:45.251Z,34.40
2022-09-07T00:59:18.711Z,32.28
2022-09-07T01:01:47.451Z,32.75
2022-09-07T01:04:17.165Z,33.03
2022-09-07T01:06:45.670Z,33.00
2022-09-07T01:09:20.560Z,31.75
2022-09-07T01:11:51.060Z,33.97
2022-09-07T01:14:27.577Z,33.00
2022-09-07T01:17:10.141Z,31.48
2022-09-07T01:20:49.501Z,31.33
2022-09-07T01:24:24.524Z,31.02
2022-09-07T01:27:55.554Z,31.92
2022-09-07T01:30:25.955Z,32.85
2022-09-07T01:33:31.884Z,31.42
2022-09-07T01:36:17.477Z,32.97
2022-09-07T01:38:50.363Z,32.78
2022-09-07T01:41:30.351Z,32.63
2022-09-07T01:44:08.164Z,32.25
2022-09-07T01:46:46.983Z,31.92
2022-09-07T01:49:24.242Z,32.85
2022-09-07T01:52:01.980Z,31.77
2022-09-07T01:54:38.255Z,32.03
2022-09-07T01:57:14.166Z,31.30
2022-09-07T01:59:50.261Z,33.42
2022-09-07T02:02:24.666Z,32.78
2022-09-07T02:05:01.511Z,30.88
2022-09-07T02:07:37.843Z,31.05
2022-09-07T02:10:13.408Z,31.98
2022-09-07T02:12:48.698Z,30.55
2022-09-07T02:15:28.828Z,30.50
2022-09-07T02:18:05.239Z,32.00
2022-09-07T02:20:39.031Z,31.42
2022-09-07T02:23:18.438Z,30.85
2022-09-07T02:25:55.213Z,31.25
2022-09-07T02:28:29.707Z,33.10
2022-09-07T02:31:00.240Z,31.48
2022-09-07T02:33:29.347Z,32.10
2022-09-07T02:35:58.670Z,32.45
2022-09-07T02:38:27.307Z,32.25
2022-09-07T02:40:58.855Z,31.05
2022-09-07T02:43:28.952Z,31.27
2022-09-07T02:46:23.733Z,31.63
2022-09-07T02:49:07.095Z,29.90
2022-09-07T02:51:46.592Z,30.95
2022-09-07T02:54:36.392Z,30.60
2022-09-07T02:57:18.862Z,31.40
2022-09-07T03:00:02.564Z,29.85
2022-09-07T03:02:44.222Z,29.02
2022-09-07T03:05:21.366Z,31.15
2022-09-07T03:07:59.709Z,31.88
2022-09-07T03:10:29.709Z,29.65
2022-09-07T03:12:58.020Z,30.38
2022-09-07T03:15:28.628Z,29.73
2022-09-07T03:17:58.304Z,27.75
2022-09-07T03:20:26.535Z,30.77
2022-09-07T03:22:54.637Z,30.38
2022-09-07T03:25:24.023Z,31.08
2022-09-07T03:27:52.309Z,29.30
2022-09-07T03:30:20.841Z,29.75
2022-09-07T03:32:48.988Z,30.45
2022-09-07T03:35:19.359Z,30.73
2022-09-07T03:37:47.441Z,29.65
2022-09-07T03:40:17.397Z,28.33
2022-09-07T03:42:49.288Z,28.88
2022-09-07T03:45:18.437Z,29.85
2022-09-07T03:47:46.799Z,29.73
2022-09-07T03:50:14.891Z,27.98
2022-09-07T03:52:44.349Z,29.20
2022-09-07T03:55:12.680Z,29.38
2022-09-07T03:57:41.045Z,29.02
2022-09-07T04:00:10.841Z,28.83
2022-09-07T04:02:39.015Z,29.17
2022-09-07T04:05:08.127Z,28.30
2022-09-07T04:07:36.306Z,29.52
2022-09-07T04:10:06.340Z,29.17
2022-09-07T04:12:34.519Z,28.05
2022-09-07T04:15:02.643Z,28.35
2022-09-07T04:17:30.735Z,30.20
2022-09-07T04:19:58.824Z,28.85
2022-09-07T04:22:26.933Z,28.40
2022-09-07T04:24:55.041Z,28.60
2022-09-07T04:27:24.455Z,29.42
2022-09-07T04:29:52.587Z,28.92
2022-09-07T04:32:20.671Z,29.17
2022-09-07T04:34:48.870Z,29.00
2022-09-07T04:37:17.085Z,27.50
2022-09-07T04:39:45.203Z,27.02
2022-09-07T04:42:13.368Z,30.27
2022-09-07T04:44:42.844Z,27.52
2022-09-07T04:47:11.111Z,28.25
2022-09-07T04:49:39.214Z,28.58
2022-09-07T04:52:07.448Z,28.73
2022-09-07T04:54:35.536Z,27.63
2022-09-07T04:57:03.653Z,27.85
2022-09-07T04:59:31.884Z,27.40
2022-09-07T05:02:01.407Z,27.88
2022-09-07T05:04:29.625Z,27.35
2022-09-07T05:06:57.765Z,27.13
2022-09-07T05:09:25.869Z,25.88
2022-09-07T05:11:54.548Z,26.92
2022-09-07T05:14:22.648Z,25.33
2022-09-07T05:16:50.908Z,26.88
2022-09-07T05:19:20.391Z,25.00
2022-09-07T05:21:48.529Z,25.23
2022-09-07T05:24:16.701Z,24.30
2022-09-07T05:26:44.945Z,24.65
2022-09-07T05:32:01.532Z,23.92
2022-09-07T05:34:31.750Z,23.75
2022-09-07T05:37:01.360Z,24.95
2022-09-07T05:39:30.129Z,23.15
2022-09-07T05:41:58.395Z,23.90
2022-09-07T05:47:10.480Z,24.20
2022-09-07T05:49:40.308Z,22.45
2022-09-07T05:52:08.640Z,23.30
2022-09-07T05:54:36.809Z,23.92
2022-09-07T05:57:06.316Z,22.42
2022-09-07T05:59:35.121Z,22.20
2022-09-07T06:02:03.320Z,24.50
2022-09-07T06:04:31.572Z,24.23
2022-09-07T06:12:37.264Z,22.65
2022-09-07T06:15:06.322Z,21.90
2022-09-07T06:17:34.468Z,20.77
2022-09-07T06:20:03.244Z,22.17
2022-09-07T06:22:32.725Z,21.42
2022-09-07T06:25:00.853Z,20.90
2022-09-07T06:27:29.436Z,19.73
2022-09-07T06:29:58.017Z,19.25
2022-09-07T06:35:15.510Z,18.75
2022-09-07T06:37:45.543Z,19.52
2022-09-07T06:40:14.012Z,18.15
2022-09-07T06:42:42.338Z,17.27
2022-09-07T06:45:11.571Z,14.80
2022-09-07T06:47:40.714Z,17.35
2022-09-07T06:50:10.891Z,15.85
2022-09-07T06:55:29.390Z,17.83
2022-09-07T06:57:57.622Z,16.95
2022-09-07T07:00:25.900Z,16.55
2022-09-07T07:02:54.045Z,16.05
2022-09-07T07:05:22.179Z,16.27
2022-09-07T07:07:50.297Z,14.70
2022-09-07T07:10:23.702Z,13.35
2022-09-07T07:12:57.941Z,14.35
2022-09-07T07:15:29.356Z,14.98
2022-09-07T07:18:02.596Z,13.88
2022-09-07T07:20:37.839Z,12.85
2022-09-07T07:23:06.300Z,12.90
2022-09-07T07:25:36.208Z,17.40
2022-09-07T07:30:57.174Z,11.02
2022-09-07T07:33:25.930Z,11.85
2022-09-07T07:35:54.123Z,10.20
2022-09-07T07:44:01.176Z,9.32
2022-09-07T07:46:30.487Z,8.73
2022-09-07T07:48:59.138Z,8.10
2022-09-07T07:51:27.613Z,8.38
2022-09-07T07:53:56.146Z,7.15
2022-09-07T07:56:24.428Z,7.95
2022-09-07T07:58:52.733Z,7.93
2022-09-07T08:01:22.180Z,7.63
2022-09-07T08:03:50.871Z,7.60
2022-09-07T08:06:21.740Z,7.60
2022-09-07T08:08:49.876Z,7.80
2022-09-07T08:11:20.842Z,7.18
2022-09-07T08:13:51.002Z,7.70
2022-09-07T08:16:21.159Z,7.65
2022-09-07T08:18:49.275Z,7.25
2022-09-07T08:21:18.143Z,7.15
2022-09-07T08:23:46.243Z,6.72
2022-09-07T08:26:14.297Z,7.68
2022-09-07T08:28:45.524Z,8.10
2022-09-07T08:31:16.793Z,7.38
2022-09-07T08:33:46.557Z,7.43
2022-09-07T08:36:17.246Z,7.93
2022-09-07T08:38:45.651Z,7.30
2022-09-07T08:41:52.535Z,7.97
2022-09-07T08:44:26.828Z,7.55
2022-09-07T08:47:01.221Z,7.10
2022-09-07T08:49:43.930Z,7.30
2022-09-07T08:52:17.175Z,7.35
2022-09-07T08:54:54.939Z,6.78
2022-09-07T08:57:34.154Z,6.72
2022-09-07T09:00:08.823Z,7.20
2022-09-07T09:02:43.526Z,7.05
2022-09-07T09:05:29.035Z,6.75
2022-09-07T09:08:21.797Z,7.32
2022-09-07T09:11:02.536Z,6.60
2022-09-07T09:13:52.114Z,7.50
2022-09-07T09:16:34.935Z,8.90
2022-09-07T09:19:23.310Z,6.97
2022-09-07T09:22:08.578Z,7.30
2022-09-07T09:24:42.143Z,8.85
2022-09-07T09:27:10.932Z,7.00
2022-09-07T09:29:38.945Z,8.02
2022-09-07T09:32:33.997Z,7.63
2022-09-07T09:35:12.334Z,8.73
2022-09-07T09:37:44.135Z,8.15
2022-09-07T09:40:26.480Z,8.20
2022-09-07T09:43:07.757Z,7.70
2022-09-07T09:48:35.889Z,7.32
2022-09-07T09:54:07.094Z,8.48
2022-09-07T09:56:41.207Z,10.93
2022-09-07T10:05:38.637Z,10.32
2022-09-07T10:08:19.673Z,8.85
2022-09-07T10:11:02.734Z,11.57
2022-09-07T10:13:35.118Z,8.40
2022-09-07T10:16:07.540Z,8.35
2022-09-07T10:18:39.180Z,8.27
2022-09-07T10:21:23.670Z,7.88
2022-09-07T10:23:58.300Z,7.95
2022-09-07T10:26:33.036Z,9.05
2022-09-07T10:29:17.444Z,8.52
2022-09-07T10:32:06.836Z,7.60
2022-09-07T10:34:50.885Z,8.13
2022-09-07T10:37:32.032Z,7.63
2022-09-07T10:40:17.299Z,8.55
2022-09-07T10:46:56.188Z,7.70
2022-09-07T10:49:22.284Z,8.68
2022-09-07T10:52:05.380Z,9.00
2022-09-07T10:54:48.444Z,7.68
2022-09-07T10:57:39.303Z,7.50
2022-09-07T11:00:15.813Z,9.57
2022-09-07T11:03:25.313Z,7.25
2022-09-07T11:06:15.008Z,7.95
2022-09-07T11:09:16.338Z,7.72
2022-09-07T11:12:08.167Z,7.63
2022-09-07T11:14:44.551Z,7.38
2022-09-07T11:17:22.161Z,7.03
2022-09-07T11:20:04.079Z,7.13
2022-09-07T11:22:38.863Z,10.20
2022-09-07T11:25:35.342Z,7.30
2022-09-07T11:28:14.078Z,7.60
2022-09-07T11:30:49.944Z,8.13
2022-09-07T11:33:24.778Z,6.72
2022-09-07T11:36:00.973Z,6.95
2022-09-07T11:38:35.552Z,8.85
2022-09-07T11:41:22.162Z,7.45
2022-09-07T11:44:01.774Z,7.07
2022-09-07T11:46:41.698Z,7.38
2022-09-07T11:49:21.064Z,7.38
2022-09-07T11:51:56.924Z,7.18
2022-09-07T11:54:42.337Z,6.90
2022-09-07T11:58:01.037Z,8.02
2022-09-07T12:00:45.244Z,7.22
2022-09-07T12:03:50.853Z,8.38
2022-09-07T12:06:54.898Z,9.48
2022-09-07T12:09:51.513Z,6.60
2022-09-07T12:12:56.596Z,7.35
2022-09-07T12:15:44.535Z,9.68
2022-09-07T12:18:33.331Z,8.02
2022-09-07T12:21:01.484Z,7.20
2022-09-07T12:23:32.848Z,6.32
2022-09-07T12:26:57.892Z,6.78
2022-09-07T12:29:28.970Z,5.47
2022-09-07T12:32:07.390Z,9.02
2022-09-07T12:34:57.884Z,5.80
2022-09-07T12:37:43.967Z,6.07
2022-09-07T12:40:59.723Z,6.63
2022-09-07T12:43:54.255Z,5.70
2022-09-07T12:46:52.957Z,6.00
2022-09-07T12:50:05.846Z,5.60
2022-09-07T12:52:51.035Z,6.85
2022-09-07T12:56:28.542Z,7.00
2022-09-07T12:59:31.388Z,5.85
2022-09-07T13:02:18.168Z,8.82
2022-09-07T13:05:01.572Z,6.32
2022-09-07T13:08:15.796Z,6.22
2022-09-07T13:10:46.400Z,6.53
2022-09-07T13:17:16.138Z,6.32
2022-09-07T13:20:08.322Z,6.63
2022-09-07T13:22:56.157Z,6.57
2022-09-07T13:25:46.515Z,6.45
2022-09-07T13:28:30.189Z,7.05
2022-09-07T13:31:43.371Z,6.80
2022-09-07T13:34:50.975Z,6.40
2022-09-07T13:37:24.039Z,5.60
2022-09-07T13:39:56.567Z,6.20
2022-09-07T13:42:30.134Z,6.03
2022-09-07T13:45:02.089Z,6.03
2022-09-07T13:47:47.716Z,5.78
2022-09-07T13:50:38.165Z,5.47
2022-09-07T13:53:36.653Z,5.80
2022-09-07T13:56:22.236Z,5.47
2022-09-07T13:58:53.980Z,6.82
2022-09-07T14:01:27.149Z,5.55
2022-09-07T14:03:59.498Z,5.53
2022-09-07T14:06:36.188Z,6.03
2022-09-07T14:09:14.437Z,5.40
2022-09-07T14:11:45.820Z,5.57
2022-09-07T14:14:21.239Z,6.28
2022-09-07T14:16:57.699Z,6.95
2022-09-07T14:19:37.407Z,6.70
2022-09-07T14:22:12.108Z,6.40
2022-09-07T14:24:44.528Z,5.65
2022-09-07T14:27:25.340Z,7.30
2022-09-07T14:29:53.682Z,5.75
2022-09-07T14:32:27.188Z,5.43
2022-09-07T14:34:55.648Z,6.88
2022-09-07T14:37:24.641Z,5.20
2022-09-07T14:39:53.670Z,6.15
2022-09-07T14:42:24.899Z,5.60
2022-09-07T14:45:32.085Z,9.20
2022-09-07T14:48:00.165Z,8.15
2022-09-07T14:50:33.987Z,7.28
2022-09-07T14:56:03.438Z,5.85
2022-09-07T14:58:33.195Z,5.93
2022-09-07T15:01:37.547Z,5.90
2022-09-07T15:04:19.375Z,5.20
2022-09-07T15:07:03.261Z,5.68
2022-09-07T15:09:38.254Z,6.13
2022-09-07T15:12:24.903Z,5.85
2022-09-07T15:15:12.182Z,5.30
2022-09-07T15:17:43.378Z,4.95
2022-09-07T15:20:36.153Z,5.72
2022-09-07T15:23:07.098Z,6.07
2022-09-07T15:25:36.645Z,5.63
2022-09-07T15:28:05.754Z,7.45
2022-09-07T15:30:34.812Z,5.57
2022-09-07T15:33:04.306Z,6.32
2022-09-07T15:35:32.324Z,5.47
2022-09-07T15:38:05.226Z,5.50
2022-09-07T15:41:20.831Z,5.78
2022-09-07T15:43:40.472Z,6.82
2022-09-07T15:46:09.870Z,5.15
2022-09-07T15:48:39.423Z,5.97
2022-09-07T15:54:13.672Z,5.20
2022-09-07T15:56:44.036Z,5.85
2022-09-07T15:59:31.194Z,5.70
2022-09-07T16:01:59.561Z,7.10
2022-09-07T16:04:29.510Z,5.45
2022-09-07T16:06:58.023Z,6.20
2022-09-07T16:09:26.810Z,5.90
2022-09-07T16:11:54.902Z,5.95
2022-09-07T16:14:23.027Z,5.32
2022-09-07T16:19:41.379Z,5.60
2022-09-07T16:22:09.643Z,5.75
2022-09-07T16:24:38.314Z,5.50
2022-09-07T16:27:06.688Z,6.03
2022-09-07T16:29:36.369Z,6.90
2022-09-07T16:34:54.226Z,5.20
2022-09-07T16:37:22.215Z,5.13
2022-09-07T16:39:51.499Z,4.68
2022-09-07T16:42:19.979Z,4.90
2022-09-07T16:44:48.000Z,7.03
2022-09-07T16:47:16.069Z,4.97
2022-09-07T16:49:44.066Z,7.05
2022-09-07T16:52:13.417Z,5.35
2022-09-07T16:54:41.425Z,5.70
2022-09-07T16:57:09.363Z,5.35
2022-09-07T16:59:37.322Z,5.15
2022-09-07T17:02:05.269Z,5.00
2022-09-07T17:04:33.304Z,6.70
2022-09-07T17:07:01.369Z,4.63
2022-09-07T17:09:30.703Z,4.47
2022-09-07T17:11:58.685Z,4.18
2022-09-07T17:14:28.230Z,8.30
2022-09-07T17:16:56.323Z,5.93
2022-09-07T17:19:31.804Z,6.60
2022-09-07T17:22:00.665Z,4.32
2022-09-07T17:24:32.167Z,5.40
2022-09-07T17:27:00.849Z,4.72
2022-09-07T17:29:30.502Z,6.53
2022-09-07T17:34:47.224Z,5.93
2022-09-07T17:37:15.223Z,5.13
2022-09-07T17:39:44.771Z,5.15
2022-09-07T17:42:13.316Z,5.00
2022-09-07T17:44:41.364Z,5.75
2022-09-07T17:47:09.991Z,6.63
2022-09-07T17:49:38.050Z,4.57
2022-09-07T17:52:06.337Z,4.20
2022-09-07T17:54:34.236Z,4.88
2022-09-07T17:57:03.921Z,5.45
2022-09-07T18:02:20.277Z,7.25
2022-09-07T18:04:49.121Z,9.98
2022-09-07T18:07:17.216Z,7.55
2022-09-07T18:09:45.129Z,5.65
2022-09-07T18:12:14.431Z,9.45
2022-09-07T18:14:43.559Z,10.07
2022-09-07T18:17:11.785Z,6.25
2022-09-07T18:19:39.730Z,7.57
2022-09-07T18:22:08.637Z,5.72
2022-09-07T18:24:37.160Z,6.55
2022-09-07T18:27:06.346Z,6.18
2022-09-07T18:29:35.637Z,6.32
2022-09-07T18:32:08.557Z,5.88
2022-09-07T18:34:38.105Z,6.65
2022-09-07T18:37:06.947Z,6.80
2022-09-07T18:39:35.529Z,6.25
2022-09-07T18:42:03.835Z,5.75
2022-09-07T18:47:28.736Z,6.13
2022-09-07T18:49:58.457Z,5.97
2022-09-07T18:55:16.148Z,7.22
2022-09-07T18:57:44.943Z,7.50
2022-09-07T19:00:14.748Z,9.50
2022-09-07T19:02:44.136Z,10.52
2022-09-07T19:08:03.234Z,11.90
2022-09-07T19:10:35.789Z,9.85
2022-09-07T19:13:04.021Z,8.35
2022-09-07T19:15:37.395Z,7.50
2022-09-07T19:18:08.681Z,8.68
2022-09-07T19:20:37.617Z,7.45
2022-09-07T19:23:06.465Z,7.95
2022-09-07T19:25:34.597Z,8.55
2022-09-07T19:28:02.749Z,8.18
2022-09-07T19:30:30.832Z,11.70
2022-09-07T19:33:03.938Z,10.77
2022-09-07T19:35:37.329Z,7.45
2022-09-07T19:38:05.872Z,11.13
2022-09-07T19:40:34.189Z,10.18
2022-09-07T19:43:02.449Z,9.68
2022-09-07T19:45:30.516Z,4.80
2022-09-07T19:47:58.794Z,5.88
2022-09-07T19:50:26.857Z,6.35
2022-09-07T19:52:56.255Z,4.38
2022-09-07T19:55:24.302Z,7.60
2022-09-07T19:57:52.470Z,7.30
2022-09-07T20:00:20.646Z,7.03
2022-09-07T20:02:49.971Z,7.90
2022-09-07T20:05:19.154Z,9.30
2022-09-07T20:07:47.327Z,3.40
2022-09-07T20:10:17.509Z,3.88
2022-09-07T20:12:45.612Z,4.20
2022-09-07T20:15:13.662Z,10.38
2022-09-07T20:17:41.714Z,4.30
2022-09-07T20:20:10.936Z,3.72
2022-09-07T20:22:39.079Z,4.32
2022-09-07T20:25:12.506Z,4.63
2022-09-07T20:27:42.782Z,5.43
2022-09-07T20:30:12.539Z,4.03
2022-09-07T20:32:40.685Z,4.13
2022-09-07T20:35:09.616Z,4.30
2022-09-07T20:37:37.778Z,5.40
2022-09-07T20:40:07.586Z,6.53
2022-09-07T20:42:35.796Z,6.53
2022-09-07T20:45:06.163Z,5.10
2022-09-07T20:47:34.374Z,6.07
2022-09-07T20:50:02.404Z,6.60
2022-09-07T20:52:30.429Z,6.82
2022-09-07T20:54:58.436Z,6.65
2022-09-07T20:57:26.435Z,7.47
2022-09-07T20:59:54.522Z,6.35
2022-09-07T21:02:23.951Z,7.00
2022-09-07T21:04:52.214Z,7.35
2022-09-07T21:07:20.339Z,7.60
2022-09-07T21:09:48.381Z,6.50
2022-09-07T21:12:16.694Z,8.18
2022-09-07T21:14:46.017Z,7.57
2022-09-07T21:17:14.055Z,7.07
2022-09-07T21:19:43.342Z,7.13
2022-09-07T21:22:11.344Z,7.15
2022-09-07T21:24:39.410Z,9.25
2022-09-07T21:27:07.865Z,7.28
2022-09-07T21:29:35.868Z,7.85
2022-09-07T21:32:04.616Z,7.63
2022-09-07T21:34:32.635Z,7.55
2022-09-07T21:37:01.990Z,7.90
2022-09-07T21:39:30.084Z,7.95
2022-09-07T21:41:58.177Z,7.85
2022-09-07T21:44:26.236Z,7.53
2022-09-07T21:46:54.308Z,8.57
2022-09-07T21:49:22.389Z,7.80
2022-09-07T21:51:51.315Z,7.75
2022-09-07T21:54:20.764Z,8.20
2022-09-07T21:56:49.191Z,7.72
2022-09-07T21:59:17.192Z,8.63
2022-09-07T22:01:45.403Z,8.95
2022-09-07T22:04:13.515Z,9.13
2022-09-07T22:06:43.781Z,9.68
2022-09-07T22:09:11.764Z,8.38
2022-09-07T22:11:44.145Z,10.00
2022-09-07T22:14:15.668Z,9.40
2022-09-07T22:16:43.704Z,7.75
2022-09-07T22:19:11.825Z,8.95
2022-09-07T22:21:39.940Z,8.73
2022-09-07T22:24:08.967Z,8.63
2022-09-07T22:26:40.034Z,8.45
2022-09-07T22:29:11.913Z,8.77
2022-09-07T22:31:41.488Z,8.63
2022-09-07T22:34:10.478Z,8.50
2022-09-07T22:36:41.067Z,10.02
2022-09-07T22:39:13.865Z,9.65
2022-09-07T22:41:45.188Z,10.45
2022-09-07T22:44:17.824Z,9.25
2022-09-07T22:46:48.098Z,10.10
2022-09-07T22:49:18.229Z,10.35
2022-09-07T22:51:47.439Z,11.00
2022-09-07T22:54:15.919Z,9.02
2022-09-07T22:56:45.267Z,9.93
2022-09-07T22:59:14.253Z,8.27
2022-09-07T23:01:42.820Z,8.55
2022-09-07T23:04:12.880Z,7.82
2022-09-07T23:06:43.679Z,8.10
2022-09-07T23:09:14.258Z,8.18
2022-09-07T23:11:43.195Z,7.13
2022-09-07T23:14:17.114Z,7.53
2022-09-07T23:16:45.982Z,7.78
2022-09-07T23:19:16.498Z,6.88
2022-09-07T23:21:45.337Z,7.10
2022-09-07T23:24:15.786Z,7.78
2022-09-07T23:26:44.662Z,7.65
2022-09-07T23:29:15.869Z,6.80
2022-09-07T23:31:46.365Z,8.40
2022-09-07T23:34:14.443Z,7.57
2022-09-07T23:36:42.432Z,7.82
2022-09-07T23:39:10.975Z,8.23
2022-09-07T23:41:38.993Z,7.05
2022-09-07T23:44:07.133Z,7.47
2022-09-07T23:46:36.516Z,5.63
2022-09-07T23:49:04.708Z,9.15
2022-09-07T23:51:32.676Z,8.80
2022-09-07T23:54:00.829Z,7.65
2022-09-07T23:56:29.205Z,8.55
2022-09-07T23:58:57.228Z,7.22
